sensor_id;sensor_type;location;lat;lon;timestamp;pressure;altitude;pressure_sealevel;temperature;humidity
6942;BME280;3510;43.200;27.920;2023-02-03T00:01:01;101080.25;;;9.74;46.66
6942;BME280;3510;43.200;27.920;2023-02-03T00:03:28;101133.44;;;9.78;47.58
6942;BME280;3510;43.200;27.920;2023-02-03T00:05:56;101095.81;;;9.25;47.88
6942;BME280;3510;43.200;27.920;2023-02-03T00:08:23;101097.38;;;9.41;47.51
6942;BME280;3510;43.200;27.920;2023-02-03T00:10:50;101103.91;;;9.39;47.73
6942;BME280;3510;43.200;27.920;2023-02-03T00:13:17;101119.16;;;9.32;47.76
6942;BME280;3510;43.200;27.920;2023-02-03T00:15:44;101128.72;;;9.36;48.01
6942;BME280;3510;43.200;27.920;2023-02-03T00:18:13;101136.94;;;9.53;48.03
6942;BME280;3510;43.200;27.920;2023-02-03T00:20:44;101130.94;;;9.33;47.93
6942;BME280;3510;43.200;27.920;2023-02-03T00:23:13;101077.19;;;9.31;47.24
6942;BME280;3510;43.200;27.920;2023-02-03T00:25:41;101089.03;;;9.24;47.62
6942;BME280;3510;43.200;27.920;2023-02-03T00:28:08;101095.88;;;9.16;48.40
6942;BME280;3510;43.200;27.920;2023-02-03T00:30:36;101151.00;;;9.51;47.78
6942;BME280;3510;43.200;27.920;2023-02-03T00:33:04;101148.13;;;9.20;47.74
6942;BME280;3510;43.200;27.920;2023-02-03T00:35:43;101144.69;;;9.45;47.85
6942;BME280;3510;43.200;27.920;2023-02-03T00:38:11;101141.53;;;9.57;47.20
6942;BME280;3510;43.200;27.920;2023-02-03T00:40:40;101096.63;;;8.98;48.45
6942;BME280;3510;43.200;27.920;2023-02-03T00:43:07;101136.44;;;9.12;48.33
6942;BME280;3510;43.200;27.920;2023-02-03T00:45:34;101125.66;;;9.21;47.99
6942;BME280;3510;43.200;27.920;2023-02-03T00:48:01;101135.13;;;9.07;49.40
6942;BME280;3510;43.200;27.920;2023-02-03T00:50:30;101147.06;;;9.35;48.43
6942;BME280;3510;43.200;27.920;2023-02-03T00:53:03;101145.06;;;9.05;48.83
6942;BME280;3510;43.200;27.920;2023-02-03T00:55:33;101139.88;;;8.78;49.91
6942;BME280;3510;43.200;27.920;2023-02-03T00:58:01;101068.03;;;8.61;48.79
6942;BME280;3510;43.200;27.920;2023-02-03T01:00:28;101115.81;;;8.88;48.42
6942;BME280;3510;43.200;27.920;2023-02-03T01:02:55;101143.88;;;8.50;49.45
6942;BME280;3510;43.200;27.920;2023-02-03T01:05:22;101029.78;;;8.63;47.80
6942;BME280;3510;43.200;27.920;2023-02-03T01:07:51;101159.19;;;9.05;48.57
6942;BME280;3510;43.200;27.920;2023-02-03T01:10:20;101166.91;;;8.98;48.76
6942;BME280;3510;43.200;27.920;2023-02-03T01:12:48;101132.19;;;9.02;48.45
6942;BME280;3510;43.200;27.920;2023-02-03T01:15:15;101151.53;;;8.86;48.67
6942;BME280;3510;43.200;27.920;2023-02-03T01:17:43;101150.22;;;8.72;49.20
6942;BME280;3510;43.200;27.920;2023-02-03T01:20:11;101073.47;;;8.39;49.26
6942;BME280;3510;43.200;27.920;2023-02-03T01:22:38;101145.19;;;8.63;49.86
6942;BME280;3510;43.200;27.920;2023-02-03T01:25:07;101150.47;;;8.49;49.73
6942;BME280;3510;43.200;27.920;2023-02-03T01:27:36;101130.75;;;8.87;49.25
6942;BME280;3510;43.200;27.920;2023-02-03T01:30:03;101133.81;;;8.67;49.75
6942;BME280;3510;43.200;27.920;2023-02-03T01:32:30;101134.56;;;8.75;50.16
6942;BME280;3510;43.200;27.920;2023-02-03T01:34:59;101131.31;;;8.50;49.43
6942;BME280;3510;43.200;27.920;2023-02-03T01:37:26;101127.50;;;8.62;50.12
6942;BME280;3510;43.200;27.920;2023-02-03T01:39:53;101066.63;;;8.04;50.11
6942;BME280;3510;43.200;27.920;2023-02-03T01:42:20;101111.63;;;8.28;49.95
6942;BME280;3510;43.200;27.920;2023-02-03T01:44:49;101133.69;;;8.57;50.08
6942;BME280;3510;43.200;27.920;2023-02-03T01:47:25;101133.22;;;8.43;50.48
6942;BME280;3510;43.200;27.920;2023-02-03T01:50:03;101138.47;;;8.29;50.98
6942;BME280;3510;43.200;27.920;2023-02-03T01:52:33;101095.25;;;8.23;50.39
6942;BME280;3510;43.200;27.920;2023-02-03T01:55:03;101121.16;;;8.57;50.38
6942;BME280;3510;43.200;27.920;2023-02-03T01:57:34;101126.50;;;8.27;50.85
6942;BME280;3510;43.200;27.920;2023-02-03T02:00:07;101148.47;;;8.80;50.35
6942;BME280;3510;43.200;27.920;2023-02-03T02:02:35;101157.03;;;8.90;49.57
6942;BME280;3510;43.200;27.920;2023-02-03T02:05:05;101159.50;;;8.73;50.02
6942;BME280;3510;43.200;27.920;2023-02-03T02:07:35;101149.63;;;8.66;50.02
6942;BME280;3510;43.200;27.920;2023-02-03T02:10:04;101148.16;;;8.68;50.07
6942;BME280;3510;43.200;27.920;2023-02-03T02:12:31;101086.03;;;8.57;49.05
6942;BME280;3510;43.200;27.920;2023-02-03T02:14:59;101155.09;;;8.79;50.19
6942;BME280;3510;43.200;27.920;2023-02-03T02:17:53;101156.56;;;8.86;49.89
6942;BME280;3510;43.200;27.920;2023-02-03T02:20:32;101154.50;;;8.64;50.85
6942;BME280;3510;43.200;27.920;2023-02-03T02:26:29;101160.53;;;8.58;50.80
6942;BME280;3510;43.200;27.920;2023-02-03T02:32:12;101159.66;;;8.75;50.31
6942;BME280;3510;43.200;27.920;2023-02-03T02:34:54;101151.81;;;8.54;49.94
6942;BME280;3510;43.200;27.920;2023-02-03T02:37:33;101126.09;;;8.31;50.93
6942;BME280;3510;43.200;27.920;2023-02-03T02:40:08;101059.22;;;7.79;51.43
6942;BME280;3510;43.200;27.920;2023-02-03T02:42:45;101138.28;;;8.19;51.50
6942;BME280;3510;43.200;27.920;2023-02-03T02:45:22;101073.72;;;8.25;50.28
6942;BME280;3510;43.200;27.920;2023-02-03T02:47:56;101101.00;;;8.05;51.03
6942;BME280;3510;43.200;27.920;2023-02-03T02:50:31;101147.47;;;8.27;50.40
6942;BME280;3510;43.200;27.920;2023-02-03T02:53:01;101149.94;;;8.60;49.94
6942;BME280;3510;43.200;27.920;2023-02-03T02:55:31;101097.63;;;8.21;50.77
6942;BME280;3510;43.200;27.920;2023-02-03T02:58:04;101157.03;;;8.90;49.81
6942;BME280;3510;43.200;27.920;2023-02-03T03:00:34;101136.63;;;8.53;50.27
6942;BME280;3510;43.200;27.920;2023-02-03T03:03:22;101108.59;;;8.74;49.13
6942;BME280;3510;43.200;27.920;2023-02-03T03:05:53;101137.81;;;8.73;49.40
6942;BME280;3510;43.200;27.920;2023-02-03T03:08:24;101137.81;;;8.73;49.48
6942;BME280;3510;43.200;27.920;2023-02-03T03:10:54;101145.91;;;8.97;49.66
6942;BME280;3510;43.200;27.920;2023-02-03T03:13:24;101156.25;;;9.00;49.20
6942;BME280;3510;43.200;27.920;2023-02-03T03:15:54;101169.84;;;8.93;48.47
6942;BME280;3510;43.200;27.920;2023-02-03T03:18:37;101167.63;;;8.88;49.34
6942;BME280;3510;43.200;27.920;2023-02-03T03:21:09;101144.16;;;9.13;47.75
6942;BME280;3510;43.200;27.920;2023-02-03T03:23:42;101170.00;;;9.12;48.06
6942;BME280;3510;43.200;27.920;2023-02-03T03:26:14;101183.56;;;9.32;48.08
6942;BME280;3510;43.200;27.920;2023-02-03T03:28:46;101164.84;;;9.02;48.56
6942;BME280;3510;43.200;27.920;2023-02-03T03:31:16;101150.22;;;8.72;48.33
6942;BME280;3510;43.200;27.920;2023-02-03T03:33:45;101169.69;;;8.92;48.74
6942;BME280;3510;43.200;27.920;2023-02-03T03:36:19;101178.53;;;8.71;49.37
6942;BME280;3510;43.200;27.920;2023-02-03T03:38:53;101199.81;;;9.01;49.49
6942;BME280;3510;43.200;27.920;2023-02-03T03:41:26;101159.97;;;8.86;49.35
6942;BME280;3510;43.200;27.920;2023-02-03T03:44:00;101196.09;;;9.40;48.13
6942;BME280;3510;43.200;27.920;2023-02-03T03:46:40;101195.63;;;9.44;47.64
6942;BME280;3510;43.200;27.920;2023-02-03T03:49:12;101145.47;;;9.10;47.74
6942;BME280;3510;43.200;27.920;2023-02-03T03:51:42;101169.38;;;9.77;46.24
6942;BME280;3510;43.200;27.920;2023-02-03T03:54:14;101236.63;;;9.88;46.59
6942;BME280;3510;43.200;27.920;2023-02-03T03:56:46;101204.78;;;9.61;46.28
6942;BME280;3510;43.200;27.920;2023-02-03T03:59:16;101227.53;;;9.72;46.86
6942;BME280;3510;43.200;27.920;2023-02-03T04:01:45;101214.56;;;9.32;47.61
6942;BME280;3510;43.200;27.920;2023-02-03T04:04:44;101219.59;;;9.32;47.90
6942;BME280;3510;43.200;27.920;2023-02-03T04:07:12;101154.94;;;8.69;48.46
6942;BME280;3510;43.200;27.920;2023-02-03T04:09:40;101198.03;;;9.08;48.65
6942;BME280;3510;43.200;27.920;2023-02-03T04:12:15;101229.50;;;9.31;48.51
6942;BME280;3510;43.200;27.920;2023-02-03T04:19:58;101221.22;;;8.88;49.26
6942;BME280;3510;43.200;27.920;2023-02-03T04:25:01;101184.00;;;8.58;50.08
6942;BME280;3510;43.200;27.920;2023-02-03T04:27:28;101225.66;;;8.91;49.33
6942;BME280;3510;43.200;27.920;2023-02-03T04:29:56;101217.53;;;8.85;49.53
6942;BME280;3510;43.200;27.920;2023-02-03T04:32:27;101157.78;;;8.30;49.64
6942;BME280;3510;43.200;27.920;2023-02-03T04:37:32;101262.88;;;9.04;48.83
6942;BME280;3510;43.200;27.920;2023-02-03T04:40:01;101272.91;;;8.86;49.13
6942;BME280;3510;43.200;27.920;2023-02-03T04:42:29;101276.13;;;8.85;49.17
6942;BME280;3510;43.200;27.920;2023-02-03T04:44:57;101134.78;;;7.75;49.53
6942;BME280;3510;43.200;27.920;2023-02-03T04:47:25;101292.75;;;8.67;49.25
6942;BME280;3510;43.200;27.920;2023-02-03T04:52:28;101226.00;;;8.10;49.66
6942;BME280;3510;43.200;27.920;2023-02-03T04:54:57;101274.53;;;8.44;49.58
6942;BME280;3510;43.200;27.920;2023-02-03T04:57:24;101273.22;;;8.23;50.00
6942;BME280;3510;43.200;27.920;2023-02-03T04:59:53;101274.03;;;8.31;49.41
6942;BME280;3510;43.200;27.920;2023-02-03T05:02:20;101137.75;;;7.46;49.89
6942;BME280;3510;43.200;27.920;2023-02-03T05:04:50;101282.34;;;8.38;49.22
6942;BME280;3510;43.200;27.920;2023-02-03T05:07:18;101192.88;;;7.80;49.13
6942;BME280;3510;43.200;27.920;2023-02-03T05:09:45;101236.25;;;8.29;49.09
6942;BME280;3510;43.200;27.920;2023-02-03T05:12:14;101281.66;;;8.23;49.86
6942;BME280;3510;43.200;27.920;2023-02-03T05:14:42;101193.41;;;8.02;48.99
6942;BME280;3510;43.200;27.920;2023-02-03T05:17:09;101272.78;;;8.43;49.23
6942;BME280;3510;43.200;27.920;2023-02-03T05:22:16;101210.13;;;7.85;49.55
6942;BME280;3510;43.200;27.920;2023-02-03T05:24:44;101275.19;;;8.34;49.92
6942;BME280;3510;43.200;27.920;2023-02-03T05:27:12;101225.00;;;7.84;49.67
6942;BME280;3510;43.200;27.920;2023-02-03T05:29:41;101275.72;;;8.14;50.40
6942;BME280;3510;43.200;27.920;2023-02-03T05:32:08;101307.97;;;8.60;49.69
6942;BME280;3510;43.200;27.920;2023-02-03T05:34:34;101286.81;;;8.50;49.62
6942;BME280;3510;43.200;27.920;2023-02-03T05:37:02;101314.56;;;8.60;49.70
6942;BME280;3510;43.200;27.920;2023-02-03T05:39:30;101244.88;;;8.07;49.63
6942;BME280;3510;43.200;27.920;2023-02-03T05:41:57;101329.06;;;8.71;48.90
6942;BME280;3510;43.200;27.920;2023-02-03T05:44:24;101330.06;;;9.06;48.43
6942;BME280;3510;43.200;27.920;2023-02-03T05:46:54;101335.00;;;8.71;49.13
6942;BME280;3510;43.200;27.920;2023-02-03T05:49:22;101337.31;;;8.61;49.59
6942;BME280;3510;43.200;27.920;2023-02-03T05:51:49;101342.00;;;8.34;49.75
6942;BME280;3510;43.200;27.920;2023-02-03T05:54:17;101327.22;;;8.53;49.60
6942;BME280;3510;43.200;27.920;2023-02-03T05:56:44;101313.06;;;8.86;49.11
6942;BME280;3510;43.200;27.920;2023-02-03T05:59:11;101327.19;;;8.77;48.16
6942;BME280;3510;43.200;27.920;2023-02-03T06:01:38;101332.28;;;9.03;48.18
6942;BME280;3510;43.200;27.920;2023-02-03T06:04:07;101336.03;;;8.82;48.27
6942;BME280;3510;43.200;27.920;2023-02-03T06:06:34;101335.97;;;8.98;48.03
6942;BME280;3510;43.200;27.920;2023-02-03T06:09:03;101335.97;;;8.98;48.65
6942;BME280;3510;43.200;27.920;2023-02-03T06:11:31;101337.13;;;8.51;48.87
6942;BME280;3510;43.200;27.920;2023-02-03T06:14:00;101335.66;;;9.04;47.96
6942;BME280;3510;43.200;27.920;2023-02-03T06:16:28;101323.53;;;9.00;48.73
6942;BME280;3510;43.200;27.920;2023-02-03T06:18:55;101337.19;;;9.45;47.48
6942;BME280;3510;43.200;27.920;2023-02-03T06:21:27;101317.97;;;9.37;47.62
6942;BME280;3510;43.200;27.920;2023-02-03T06:23:54;101331.81;;;8.90;49.04
6942;BME280;3510;43.200;27.920;2023-02-03T06:26:21;101347.25;;;9.28;48.52
6942;BME280;3510;43.200;27.920;2023-02-03T06:28:49;101327.00;;;8.67;48.84
6942;BME280;3510;43.200;27.920;2023-02-03T06:31:21;101355.50;;;9.35;47.97
6942;BME280;3510;43.200;27.920;2023-02-03T06:33:48;101348.09;;;9.11;48.16
6942;BME280;3510;43.200;27.920;2023-02-03T06:36:17;101363.22;;;9.45;46.63
6942;BME280;3510;43.200;27.920;2023-02-03T06:38:46;101357.00;;;9.42;46.76
6942;BME280;3510;43.200;27.920;2023-02-03T06:41:13;101359.69;;;8.93;47.58
6942;BME280;3510;43.200;27.920;2023-02-03T06:43:40;101328.03;;;9.54;46.16
6942;BME280;3510;43.200;27.920;2023-02-03T06:46:07;101357.25;;;9.10;47.30
6942;BME280;3510;43.200;27.920;2023-02-03T06:48:34;101295.94;;;9.08;46.87
6942;BME280;3510;43.200;27.920;2023-02-03T06:51:01;101374.50;;;9.07;48.14
6942;BME280;3510;43.200;27.920;2023-02-03T06:53:30;101308.53;;;9.17;47.27
6942;BME280;3510;43.200;27.920;2023-02-03T06:55:58;101368.81;;;9.43;47.40
6942;BME280;3510;43.200;27.920;2023-02-03T06:58:28;101391.88;;;9.48;46.99
6942;BME280;3510;43.200;27.920;2023-02-03T07:00:55;101381.50;;;9.36;46.93
6942;BME280;3510;43.200;27.920;2023-02-03T07:03:23;101356.38;;;9.18;47.01
6942;BME280;3510;43.200;27.920;2023-02-03T07:05:50;101322.97;;;9.11;46.82
6942;BME280;3510;43.200;27.920;2023-02-03T07:08:17;101373.69;;;9.67;46.66
6942;BME280;3510;43.200;27.920;2023-02-03T07:10:44;101376.50;;;9.62;46.98
6942;BME280;3510;43.200;27.920;2023-02-03T07:13:12;101365.13;;;9.74;46.06
6942;BME280;3510;43.200;27.920;2023-02-03T07:15:39;101383.53;;;9.23;47.13
6942;BME280;3510;43.200;27.920;2023-02-03T07:18:06;101382.72;;;9.74;46.49
6942;BME280;3510;43.200;27.920;2023-02-03T07:20:33;101393.03;;;10.12;45.78
6942;BME280;3510;43.200;27.920;2023-02-03T07:23:00;101386.81;;;10.08;46.00
6942;BME280;3510;43.200;27.920;2023-02-03T07:25:27;101344.88;;;9.64;46.65
6942;BME280;3510;43.200;27.920;2023-02-03T07:27:54;101362.63;;;9.39;47.87
6942;BME280;3510;43.200;27.920;2023-02-03T07:30:23;101378.88;;;9.69;47.58
6942;BME280;3510;43.200;27.920;2023-02-03T07:32:51;101379.16;;;9.98;46.58
6942;BME280;3510;43.200;27.920;2023-02-03T07:35:19;101380.50;;;9.94;46.49
6942;BME280;3510;43.200;27.920;2023-02-03T07:37:46;101344.13;;;9.74;46.95
6942;BME280;3510;43.200;27.920;2023-02-03T07:40:13;101370.13;;;10.00;46.67
6942;BME280;3510;43.200;27.920;2023-02-03T07:42:41;101373.09;;;10.13;45.91
6942;BME280;3510;43.200;27.920;2023-02-03T07:45:09;101365.97;;;10.35;45.14
6942;BME280;3510;43.200;27.920;2023-02-03T07:47:39;101349.75;;;9.80;46.11
6942;BME280;3510;43.200;27.920;2023-02-03T07:50:07;101389.81;;;9.96;46.72
6942;BME280;3510;43.200;27.920;2023-02-03T07:52:34;101383.44;;;9.82;46.16
6942;BME280;3510;43.200;27.920;2023-02-03T07:55:01;101386.25;;;10.11;46.13
6942;BME280;3510;43.200;27.920;2023-02-03T07:57:29;101369.66;;;10.39;45.67
6942;BME280;3510;43.200;27.920;2023-02-03T07:59:56;101378.16;;;10.58;45.14
6942;BME280;3510;43.200;27.920;2023-02-03T08:02:24;101219.03;;;9.88;44.83
6942;BME280;3510;43.200;27.920;2023-02-03T08:04:52;101340.63;;;10.43;44.81
6942;BME280;3510;43.200;27.920;2023-02-03T08:07:22;101385.69;;;10.67;44.71
6942;BME280;3510;43.200;27.920;2023-02-03T08:09:49;101384.72;;;10.48;45.55
6942;BME280;3510;43.200;27.920;2023-02-03T08:12:16;101391.38;;;10.47;44.89
6942;BME280;3510;43.200;27.920;2023-02-03T08:14:43;101409.59;;;10.53;44.79
6942;BME280;3510;43.200;27.920;2023-02-03T08:17:10;101419.88;;;11.10;44.78
6942;BME280;3510;43.200;27.920;2023-02-03T08:19:38;101390.09;;;11.06;44.20
6942;BME280;3510;43.200;27.920;2023-02-03T08:22:07;101430.03;;;11.20;44.00
6942;BME280;3510;43.200;27.920;2023-02-03T08:24:40;101414.78;;;10.82;44.08
6942;BME280;3510;43.200;27.920;2023-02-03T08:27:10;101428.34;;;11.02;43.87
6942;BME280;3510;43.200;27.920;2023-02-03T08:29:37;101324.63;;;10.51;43.66
6942;BME280;3510;43.200;27.920;2023-02-03T08:32:08;101446.22;;;11.60;43.69
6942;BME280;3510;43.200;27.920;2023-02-03T08:34:35;101438.25;;;11.36;43.93
6942;BME280;3510;43.200;27.920;2023-02-03T08:39:44;101435.16;;;11.30;43.94
6942;BME280;3510;43.200;27.920;2023-02-03T08:42:12;101429.22;;;11.57;43.71
6942;BME280;3510;43.200;27.920;2023-02-03T08:44:39;101445.50;;;11.61;43.60
6942;BME280;3510;43.200;27.920;2023-02-03T08:47:10;101446.56;;;12.01;43.11
6942;BME280;3510;43.200;27.920;2023-02-03T08:49:37;101446.72;;;12.02;42.75
6942;BME280;3510;43.200;27.920;2023-02-03T08:52:06;101423.97;;;12.21;42.48
6942;BME280;3510;43.200;27.920;2023-02-03T08:54:34;101421.88;;;12.65;41.46
6942;BME280;3510;43.200;27.920;2023-02-03T08:57:03;101347.28;;;12.29;41.46
6942;BME280;3510;43.200;27.920;2023-02-03T08:59:30;101451.09;;;13.31;40.47
6942;BME280;3510;43.200;27.920;2023-02-03T09:02:02;101428.72;;;12.37;41.02
6942;BME280;3510;43.200;27.920;2023-02-03T09:04:30;101439.69;;;12.67;40.96
6942;BME280;3510;43.200;27.920;2023-02-03T09:06:59;101427.34;;;12.41;41.01
6942;BME280;3510;43.200;27.920;2023-02-03T09:09:27;101381.13;;;12.02;41.84
6942;BME280;3510;43.200;27.920;2023-02-03T09:11:54;101452.41;;;12.58;41.14
6942;BME280;3510;43.200;27.920;2023-02-03T09:14:28;101450.16;;;12.71;41.38
6942;BME280;3510;43.200;27.920;2023-02-03T09:16:56;101445.09;;;12.61;41.77
6942;BME280;3510;43.200;27.920;2023-02-03T09:19:24;101445.72;;;12.98;41.17
6942;BME280;3510;43.200;27.920;2023-02-03T09:21:54;101329.66;;;12.40;40.97
6942;BME280;3510;43.200;27.920;2023-02-03T09:24:35;101296.31;;;12.33;40.56
6942;BME280;3510;43.200;27.920;2023-02-03T09:27:05;101388.00;;;13.02;40.06
6942;BME280;3510;43.200;27.920;2023-02-03T09:29:34;101417.31;;;13.21;40.69
6942;BME280;3510;43.200;27.920;2023-02-03T09:32:02;101455.38;;;13.53;40.47
6942;BME280;3510;43.200;27.920;2023-02-03T09:34:33;101451.63;;;13.27;39.46
6942;BME280;3510;43.200;27.920;2023-02-03T09:37:00;101436.69;;;13.51;39.27
6942;BME280;3510;43.200;27.920;2023-02-03T09:39:28;101419.22;;;13.23;39.84
6942;BME280;3510;43.200;27.920;2023-02-03T09:42:06;101433.41;;;13.72;39.03
6942;BME280;3510;43.200;27.920;2023-02-03T09:44:41;101441.50;;;13.58;38.31
6942;BME280;3510;43.200;27.920;2023-02-03T09:47:13;101442.88;;;13.75;38.17
6942;BME280;3510;43.200;27.920;2023-02-03T09:49:44;101441.97;;;13.95;37.78
6942;BME280;3510;43.200;27.920;2023-02-03T09:52:17;101437.88;;;14.17;37.84
6942;BME280;3510;43.200;27.920;2023-02-03T09:54:49;101404.47;;;14.01;37.57
6942;BME280;3510;43.200;27.920;2023-02-03T09:57:24;101433.56;;;14.81;36.65
6942;BME280;3510;43.200;27.920;2023-02-03T09:59:56;101391.94;;;14.35;36.51
6942;BME280;3510;43.200;27.920;2023-02-03T10:02:40;101394.84;;;14.49;35.92
6942;BME280;3510;43.200;27.920;2023-02-03T10:05:19;101353.75;;;14.32;36.16
6942;BME280;3510;43.200;27.920;2023-02-03T10:07:56;101338.28;;;14.07;35.67
6942;BME280;3510;43.200;27.920;2023-02-03T10:10:35;101400.28;;;14.54;35.68
6942;BME280;3510;43.200;27.920;2023-02-03T10:13:21;101386.19;;;14.80;34.71
6942;BME280;3510;43.200;27.920;2023-02-03T10:16:06;101418.16;;;15.11;33.78
6942;BME280;3510;43.200;27.920;2023-02-03T10:18:39;101440.16;;;15.00;33.28
6942;BME280;3510;43.200;27.920;2023-02-03T10:21:14;101431.50;;;16.00;32.28
6942;BME280;3510;43.200;27.920;2023-02-03T10:23:43;101418.53;;;15.61;32.87
6942;BME280;3510;43.200;27.920;2023-02-03T10:26:15;101403.81;;;14.78;33.66
6942;BME280;3510;43.200;27.920;2023-02-03T10:28:47;101425.03;;;14.26;34.70
6942;BME280;3510;43.200;27.920;2023-02-03T10:31:20;101430.47;;;15.29;33.13
6942;BME280;3510;43.200;27.920;2023-02-03T10:33:53;101424.06;;;15.00;32.85
6942;BME280;3510;43.200;27.920;2023-02-03T10:36:31;101384.81;;;13.76;34.35
6942;BME280;3510;43.200;27.920;2023-02-03T10:39:13;101394.44;;;13.70;34.95
6942;BME280;3510;43.200;27.920;2023-02-03T10:41:43;101422.41;;;15.00;33.07
6942;BME280;3510;43.200;27.920;2023-02-03T10:44:12;101378.31;;;13.90;34.72
6942;BME280;3510;43.200;27.920;2023-02-03T10:46:43;101421.91;;;14.18;35.65
6942;BME280;3510;43.200;27.920;2023-02-03T10:49:12;101350.38;;;13.89;35.30
6942;BME280;3510;43.200;27.920;2023-02-03T10:54:30;101431.59;;;13.92;35.86
6942;BME280;3510;43.200;27.920;2023-02-03T10:57:02;101373.75;;;13.96;36.21
6942;BME280;3510;43.200;27.920;2023-02-03T10:59:33;101383.72;;;14.05;36.06
6942;BME280;3510;43.200;27.920;2023-02-03T11:02:08;101417.06;;;14.32;35.90
6942;BME280;3510;43.200;27.920;2023-02-03T11:04:36;101413.88;;;14.66;34.71
6942;BME280;3510;43.200;27.920;2023-02-03T11:07:06;101383.97;;;15.52;33.08
6942;BME280;3510;43.200;27.920;2023-02-03T11:12:13;101427.69;;;15.25;33.99
6942;BME280;3510;43.200;27.920;2023-02-03T11:14:42;101415.78;;;15.24;34.82
6942;BME280;3510;43.200;27.920;2023-02-03T11:17:16;101416.50;;;15.57;34.19
6942;BME280;3510;43.200;27.920;2023-02-03T11:19:44;101407.13;;;15.44;34.26
6942;BME280;3510;43.200;27.920;2023-02-03T11:22:13;101387.63;;;15.10;34.14
6942;BME280;3510;43.200;27.920;2023-02-03T11:24:53;101391.31;;;14.91;33.75
6942;BME280;3510;43.200;27.920;2023-02-03T11:27:21;101353.13;;;14.56;34.39
6942;BME280;3510;43.200;27.920;2023-02-03T11:30:09;101406.81;;;15.06;33.93
6942;BME280;3510;43.200;27.920;2023-02-03T11:32:41;101365.22;;;14.70;34.32
6942;BME280;3510;43.200;27.920;2023-02-03T11:35:15;101382.72;;;15.01;34.04
6942;BME280;3510;43.200;27.920;2023-02-03T11:37:44;101391.25;;;15.47;33.58
6942;BME280;3510;43.200;27.920;2023-02-03T11:40:27;101394.16;;;16.70;31.56
6942;BME280;3510;43.200;27.920;2023-02-03T11:43:08;101332.91;;;16.54;31.40
6942;BME280;3510;43.200;27.920;2023-02-03T11:45:42;101279.25;;;16.01;31.17
6942;BME280;3510;43.200;27.920;2023-02-03T11:48:25;101419.94;;;15.58;32.87
6942;BME280;3510;43.200;27.920;2023-02-03T11:51:15;101382.50;;;15.32;32.78
6942;BME280;3510;43.200;27.920;2023-02-03T11:53:59;101362.38;;;14.23;33.63
6942;BME280;3510;43.200;27.920;2023-02-03T11:56:33;101418.13;;;14.45;33.56
6942;BME280;3510;43.200;27.920;2023-02-03T11:59:20;101415.97;;;14.94;32.57
6942;BME280;3510;43.200;27.920;2023-02-03T12:02:07;101370.78;;;16.03;30.95
6942;BME280;3510;43.200;27.920;2023-02-03T12:04:56;101293.19;;;16.31;29.82
6942;BME280;3510;43.200;27.920;2023-02-03T12:07:47;101394.16;;;15.87;30.37
6942;BME280;3510;43.200;27.920;2023-02-03T12:10:29;101401.56;;;17.29;28.72
6942;BME280;3510;43.200;27.920;2023-02-03T12:13:10;101397.47;;;17.06;29.10
6942;BME280;3510;43.200;27.920;2023-02-03T12:15:55;101397.13;;;17.13;29.43
6942;BME280;3510;43.200;27.920;2023-02-03T12:18:40;101386.94;;;17.65;28.49
6942;BME280;3510;43.200;27.920;2023-02-03T12:24:09;101351.63;;;16.19;29.79
6942;BME280;3510;43.200;27.920;2023-02-03T12:27:03;101406.69;;;14.83;32.70
6942;BME280;3510;43.200;27.920;2023-02-03T12:29:40;101366.44;;;14.75;32.74
6942;BME280;3510;43.200;27.920;2023-02-03T12:32:24;101360.16;;;16.08;31.21
6942;BME280;3510;43.200;27.920;2023-02-03T12:35:01;101330.59;;;15.97;30.36
6942;BME280;3510;43.200;27.920;2023-02-03T12:37:38;101384.78;;;15.97;30.78
6942;BME280;3510;43.200;27.920;2023-02-03T12:40:15;101396.97;;;16.62;30.14
6942;BME280;3510;43.200;27.920;2023-02-03T12:42:51;101394.94;;;15.74;31.37
6942;BME280;3510;43.200;27.920;2023-02-03T12:45:23;101398.69;;;16.26;31.15
6942;BME280;3510;43.200;27.920;2023-02-03T12:47:55;101355.72;;;14.68;32.41
6942;BME280;3510;43.200;27.920;2023-02-03T12:50:29;101408.22;;;15.48;32.23
6942;BME280;3510;43.200;27.920;2023-02-03T12:53:00;101415.44;;;14.98;32.97
6942;BME280;3510;43.200;27.920;2023-02-03T12:55:35;101407.47;;;15.15;32.36
6942;BME280;3510;43.200;27.920;2023-02-03T12:58:09;101419.03;;;15.57;32.19
6942;BME280;3510;43.200;27.920;2023-02-03T13:00:42;101415.16;;;15.05;33.03
6942;BME280;3510;43.200;27.920;2023-02-03T13:03:20;101418.66;;;14.09;34.66
6942;BME280;3510;43.200;27.920;2023-02-03T13:05:54;101296.47;;;13.90;34.19
6942;BME280;3510;43.200;27.920;2023-02-03T13:08:29;101408.50;;;14.95;33.68
6942;BME280;3510;43.200;27.920;2023-02-03T13:11:09;101297.53;;;14.36;33.37
6942;BME280;3510;43.200;27.920;2023-02-03T13:13:43;101403.59;;;15.09;32.94
6942;BME280;3510;43.200;27.920;2023-02-03T13:16:12;101394.84;;;14.49;34.78
6942;BME280;3510;43.200;27.920;2023-02-03T13:18:44;101347.78;;;14.63;35.34
6942;BME280;3510;43.200;27.920;2023-02-03T13:21:14;101357.75;;;14.40;34.93
6942;BME280;3510;43.200;27.920;2023-02-03T13:23:44;101347.00;;;14.10;35.63
6942;BME280;3510;43.200;27.920;2023-02-03T13:26:38;101387.47;;;14.20;36.24
6942;BME280;3510;43.200;27.920;2023-02-03T13:31:49;101382.53;;;14.54;36.15
6942;BME280;3510;43.200;27.920;2023-02-03T13:34:37;101366.69;;;15.12;35.05
6942;BME280;3510;43.200;27.920;2023-02-03T13:40:19;101371.59;;;15.33;35.15
6942;BME280;3510;43.200;27.920;2023-02-03T13:42:55;101321.34;;;14.93;35.33
6942;BME280;3510;43.200;27.920;2023-02-03T13:45:25;101372.16;;;15.52;34.61
6942;BME280;3510;43.200;27.920;2023-02-03T13:48:05;101373.19;;;14.87;34.37
6942;BME280;3510;43.200;27.920;2023-02-03T13:50:35;101373.50;;;15.59;33.88
6942;BME280;3510;43.200;27.920;2023-02-03T13:53:04;101375.75;;;15.78;33.53
6942;BME280;3510;43.200;27.920;2023-02-03T13:55:35;101375.97;;;15.69;33.13
6942;BME280;3510;43.200;27.920;2023-02-03T13:58:06;101372.50;;;14.77;34.80
6942;BME280;3510;43.200;27.920;2023-02-03T14:03:44;101230.28;;;13.73;36.76
6942;BME280;3510;43.200;27.920;2023-02-03T14:09:40;101340.50;;;14.46;37.40
6942;BME280;3510;43.200;27.920;2023-02-03T14:12:21;101367.59;;;14.47;37.34